createdAt,value
2019-04-27T00:02:26.639Z,9.10
2019-04-27T00:05:14.315Z,9.10
2019-04-27T00:07:44.503Z,9.20
2019-04-27T00:10:14.610Z,9.20
2019-04-27T00:12:42.997Z,9.20
2019-04-27T00:15:13.239Z,9.10
2019-04-27T00:17:58.336Z,9.10
2019-04-27T00:20:35.899Z,9.10
2019-04-27T00:23:08.725Z,9.20
2019-04-27T00:25:37.200Z,9.30
2019-04-27T00:28:05.811Z,9.20
2019-04-27T00:30:35.618Z,9.20
2019-04-27T00:33:05.362Z,9.20
2019-04-27T00:35:35.965Z,9.10
2019-04-27T00:38:06.163Z,9.10
2019-04-27T00:40:36.336Z,9.10
2019-04-27T00:43:04.775Z,9.20
2019-04-27T00:45:33.579Z,9.20
2019-04-27T00:48:03.535Z,9.20
2019-04-27T00:50:33.670Z,9.20
2019-04-27T00:53:03.387Z,9.30
2019-04-27T00:55:33.959Z,9.30
2019-04-27T00:58:06.911Z,9.40
2019-04-27T01:00:39.629Z,9.40
2019-04-27T01:03:09.659Z,9.40
2019-04-27T01:05:38.071Z,9.50
2019-04-27T01:08:06.450Z,9.40
2019-04-27T01:10:35.025Z,9.50
2019-04-27T01:13:03.541Z,9.50
2019-04-27T01:15:33.975Z,9.40
2019-04-27T01:18:12.091Z,9.20
2019-04-27T01:20:32.921Z,9.00
2019-04-27T01:23:01.302Z,8.90
2019-04-27T01:25:31.347Z,8.90
2019-04-27T01:28:02.304Z,8.80
2019-04-27T01:30:32.342Z,8.70
2019-04-27T01:33:00.748Z,8.60
2019-04-27T01:35:30.695Z,8.40
2019-04-27T01:37:59.108Z,8.40
2019-04-27T01:40:29.380Z,8.30
2019-04-27T01:42:58.876Z,8.10
2019-04-27T01:45:28.988Z,8.10
2019-04-27T01:47:59.425Z,8.10
2019-04-27T01:50:29.003Z,8.00
2019-04-27T01:53:09.979Z,8.00
2019-04-27T01:55:40.635Z,8.00
2019-04-27T01:58:10.851Z,8.10
2019-04-27T02:00:45.834Z,8.20
2019-04-27T02:03:15.866Z,8.20
2019-04-27T02:05:46.050Z,8.20
2019-04-27T02:08:14.450Z,8.20
2019-04-27T02:10:42.852Z,8.20
2019-04-27T02:13:13.154Z,8.20
2019-04-27T02:15:41.559Z,8.20
2019-04-27T02:18:09.945Z,8.20
2019-04-27T02:20:38.801Z,8.10
2019-04-27T02:23:09.151Z,8.10
2019-04-27T02:25:39.531Z,8.00
2019-04-27T02:28:29.332Z,7.90
2019-04-27T02:31:19.510Z,8.00
2019-04-27T02:33:50.100Z,8.00
2019-04-27T02:36:20.237Z,7.90
2019-04-27T02:38:49.282Z,7.90
2019-04-27T02:41:19.897Z,7.80
2019-04-27T02:43:55.638Z,7.80
2019-04-27T02:46:24.039Z,7.80
2019-04-27T02:48:59.767Z,7.80
2019-04-27T02:51:27.184Z,7.80
2019-04-27T02:53:56.259Z,7.80
2019-04-27T02:56:27.106Z,7.80
2019-04-27T02:58:55.616Z,7.70
2019-04-27T03:01:26.003Z,7.70
2019-04-27T03:03:55.058Z,7.60
2019-04-27T03:06:23.649Z,7.50
2019-04-27T03:08:54.168Z,7.30
2019-04-27T03:11:23.474Z,7.30
2019-04-27T03:14:28.015Z,7.20
2019-04-27T03:16:56.860Z,7.20
2019-04-27T03:19:30.078Z,7.10
2019-04-27T03:22:00.163Z,7.00
2019-04-27T03:24:46.515Z,6.90
2019-04-27T03:27:16.688Z,6.80
2019-04-27T03:29:45.100Z,6.70
2019-04-27T03:32:13.524Z,6.60
2019-04-27T03:34:42.262Z,6.50
2019-04-27T03:37:10.863Z,6.50
2019-04-27T03:39:39.785Z,6.40
2019-04-27T03:42:10.665Z,6.20
2019-04-27T03:44:39.821Z,6.20
2019-04-27T03:47:12.241Z,6.20
2019-04-27T03:49:41.527Z,6.20
2019-04-27T03:52:23.077Z,6.10
2019-04-27T03:54:53.122Z,6.00
2019-04-27T03:57:40.292Z,5.90
2019-04-27T04:00:19.969Z,5.90
2019-04-27T04:02:50.246Z,5.90
2019-04-27T04:05:19.796Z,5.80
2019-04-27T04:07:50.293Z,5.80
2019-04-27T04:10:19.793Z,5.90
2019-04-27T04:12:56.054Z,5.90
2019-04-27T04:15:24.927Z,5.90
2019-04-27T04:17:53.345Z,5.90
2019-04-27T04:20:21.736Z,5.90
2019-04-27T04:22:51.491Z,5.90
2019-04-27T04:25:20.139Z,5.90
2019-04-27T04:27:50.653Z,5.90
2019-04-27T04:30:19.958Z,5.90
2019-04-27T04:32:51.612Z,6.00
2019-04-27T04:35:23.247Z,6.00
2019-04-27T04:37:52.851Z,6.00
2019-04-27T04:40:23.465Z,6.00
2019-04-27T04:42:53.585Z,6.00
2019-04-27T04:45:39.329Z,6.10
2019-04-27T04:48:09.935Z,6.10
2019-04-27T04:50:39.967Z,6.10
2019-04-27T04:53:12.199Z,6.00
2019-04-27T04:55:39.296Z,6.10
2019-04-27T04:58:09.329Z,6.30
2019-04-27T05:00:40.072Z,6.40
2019-04-27T05:03:09.420Z,6.50
2019-04-27T05:05:39.461Z,6.80
2019-04-27T05:08:09.093Z,7.00
2019-04-27T05:10:39.526Z,7.20
2019-04-27T05:13:09.339Z,7.40
2019-04-27T05:15:39.485Z,7.60
2019-04-27T05:18:09.079Z,7.80
2019-04-27T05:20:39.769Z,8.10
2019-04-27T05:23:09.642Z,8.30
2019-04-27T05:25:39.018Z,8.50
2019-04-27T05:28:09.737Z,8.70
2019-04-27T05:30:39.103Z,8.80
2019-04-27T05:33:08.915Z,9.00
2019-04-27T05:35:56.834Z,9.10
2019-04-27T05:38:25.296Z,9.30
2019-04-27T05:40:53.682Z,9.50
2019-04-27T05:43:25.488Z,9.60
2019-04-27T05:46:39.760Z,9.60
2019-04-27T05:49:10.232Z,9.60
2019-04-27T05:51:40.544Z,9.60
2019-04-27T05:54:09.129Z,9.70
2019-04-27T05:56:38.970Z,9.90
2019-04-27T05:59:09.209Z,10.10
2019-04-27T06:01:38.955Z,10.30
2019-04-27T06:04:09.022Z,10.40
2019-04-27T06:06:39.660Z,10.70
2019-04-27T06:09:09.492Z,10.90
2019-04-27T06:11:39.815Z,11.10
2019-04-27T06:14:09.663Z,11.20
2019-04-27T06:16:39.362Z,11.30
2019-04-27T06:19:09.538Z,11.50
2019-04-27T06:21:39.905Z,11.50
2019-04-27T06:24:08.805Z,11.60
2019-04-27T06:26:37.303Z,11.60
2019-04-27T06:29:05.717Z,11.70
2019-04-27T06:31:34.123Z,11.70
2019-04-27T06:34:02.528Z,11.80
2019-04-27T06:36:30.926Z,12.00
2019-04-27T06:38:59.345Z,12.10
2019-04-27T06:41:29.498Z,12.30
2019-04-27T06:43:59.224Z,12.40
2019-04-27T06:46:28.864Z,12.50
2019-04-27T06:48:59.153Z,12.50
2019-04-27T06:51:28.674Z,12.60
2019-04-27T06:53:57.300Z,12.70
2019-04-27T06:56:25.686Z,12.90
2019-04-27T06:58:54.069Z,13.10
2019-04-27T07:01:22.484Z,13.20
2019-04-27T07:03:50.881Z,13.20
2019-04-27T07:06:19.286Z,13.30
2019-04-27T07:08:49.700Z,13.40
2019-04-27T07:11:19.747Z,13.60
2019-04-27T07:13:49.681Z,13.80
2019-04-27T07:16:19.610Z,13.90
2019-04-27T07:18:48.222Z,14.10
2019-04-27T07:21:20.077Z,14.10
2019-04-27T07:23:59.390Z,14.20
2019-04-27T07:26:30.263Z,14.50
2019-04-27T07:28:59.589Z,14.50
2019-04-27T07:31:29.539Z,14.70
2019-04-27T07:33:59.560Z,14.80
2019-04-27T07:36:28.990Z,15.00
2019-04-27T07:38:59.508Z,15.20
2019-04-27T07:41:29.181Z,15.50
2019-04-27T07:44:05.403Z,15.70
2019-04-27T07:46:33.808Z,15.90
2019-04-27T07:49:02.229Z,16.20
2019-04-27T07:51:34.051Z,16.30
2019-04-27T07:54:00.775Z,16.30
2019-04-27T07:56:29.215Z,16.30
2019-04-27T07:58:59.412Z,16.40
2019-04-27T08:01:29.361Z,16.30
2019-04-27T08:03:59.040Z,16.30
2019-04-27T08:06:28.989Z,16.30
2019-04-27T08:08:59.203Z,16.30
2019-04-27T08:11:29.172Z,16.50
2019-04-27T08:13:58.786Z,16.60
2019-04-27T08:16:29.019Z,16.70
2019-04-27T08:18:59.813Z,16.60
2019-04-27T08:21:28.886Z,16.60
2019-04-27T08:23:58.672Z,16.60
2019-04-27T08:26:28.867Z,16.60
2019-04-27T08:28:58.915Z,16.60
2019-04-27T08:31:28.949Z,16.70
2019-04-27T08:33:58.312Z,16.70
2019-04-27T08:36:28.889Z,16.60
2019-04-27T08:38:58.857Z,16.30
2019-04-27T08:41:27.354Z,16.30
2019-04-27T08:43:55.769Z,16.30
2019-04-27T08:46:24.168Z,16.30
2019-04-27T08:48:52.585Z,16.60
2019-04-27T08:51:20.983Z,16.90
2019-04-27T08:53:50.170Z,16.60
2019-04-27T08:56:19.397Z,16.40
2019-04-27T08:58:49.553Z,16.40
2019-04-27T09:01:18.354Z,16.30
2019-04-27T09:03:49.507Z,16.40
2019-04-27T09:06:19.003Z,16.60
2019-04-27T09:08:49.683Z,16.60
2019-04-27T09:11:36.329Z,16.50
2019-04-27T09:14:09.424Z,16.50
2019-04-27T09:16:59.523Z,16.30
2019-04-27T09:19:20.466Z,16.10
2019-04-27T09:22:13.624Z,16.10
2019-04-27T09:24:37.005Z,16.10
2019-04-27T09:27:06.047Z,16.00
2019-04-27T09:29:34.524Z,15.40
2019-04-27T09:32:02.995Z,15.20
2019-04-27T09:34:31.404Z,15.20
2019-04-27T09:36:59.802Z,15.20
2019-04-27T09:39:28.220Z,15.20
2019-04-27T09:41:57.195Z,15.20
2019-04-27T09:44:26.660Z,15.20
2019-04-27T09:46:56.056Z,15.30
2019-04-27T09:49:26.315Z,15.20
2019-04-27T09:51:55.677Z,14.90
2019-04-27T09:54:24.477Z,15.10
2019-04-27T09:56:52.910Z,15.10
2019-04-27T09:59:21.314Z,15.30
2019-04-27T10:01:49.717Z,15.30
2019-04-27T10:04:18.136Z,15.50
2019-04-27T10:06:48.688Z,15.70
2019-04-27T10:09:16.671Z,15.60
2019-04-27T10:11:45.073Z,15.40
2019-04-27T10:14:13.475Z,15.60
2019-04-27T10:16:41.865Z,15.80
2019-04-27T10:19:10.254Z,15.70
2019-04-27T10:21:38.735Z,15.70
2019-04-27T10:24:07.119Z,15.80
2019-04-27T10:26:36.234Z,15.80
2019-04-27T10:29:06.160Z,16.10
2019-04-27T10:31:34.682Z,16.30
2019-04-27T10:34:03.069Z,16.40
2019-04-27T10:36:40.634Z,16.40
2019-04-27T10:39:13.500Z,16.60
2019-04-27T10:41:42.363Z,16.60
2019-04-27T10:44:11.047Z,16.60
2019-04-27T10:46:39.447Z,16.50
2019-04-27T10:49:07.995Z,16.50
2019-04-27T10:51:36.474Z,16.40
2019-04-27T10:54:06.082Z,16.40
2019-04-27T10:56:36.175Z,16.50
2019-04-27T10:59:06.566Z,16.50
2019-04-27T11:01:35.919Z,16.50
2019-04-27T11:04:18.114Z,16.50
2019-04-27T11:06:48.934Z,16.50
2019-04-27T11:09:17.591Z,16.40
2019-04-27T11:11:46.437Z,16.10
2019-04-27T11:14:16.008Z,15.90
2019-04-27T11:16:45.916Z,15.80
2019-04-27T11:19:16.884Z,15.60
2019-04-27T11:21:45.492Z,15.50
2019-04-27T11:24:13.897Z,15.50
2019-04-27T11:26:42.389Z,15.50
2019-04-27T11:29:10.770Z,15.30
2019-04-27T11:31:39.191Z,15.30
2019-04-27T11:34:07.927Z,15.40
2019-04-27T11:36:45.487Z,15.40
2019-04-27T11:39:16.228Z,15.20
2019-04-27T11:41:45.915Z,15.20
2019-04-27T11:44:15.282Z,15.20
2019-04-27T11:46:45.515Z,15.30
2019-04-27T11:49:15.598Z,15.40
2019-04-27T11:51:44.066Z,15.40
2019-04-27T11:54:12.475Z,15.50
2019-04-27T11:56:40.948Z,15.70
2019-04-27T11:59:09.358Z,15.80
2019-04-27T12:01:37.767Z,15.90
2019-04-27T12:04:06.172Z,15.70
2019-04-27T12:06:35.898Z,15.90
2019-04-27T12:09:05.953Z,15.80
2019-04-27T12:11:36.180Z,15.70
2019-04-27T12:14:06.107Z,15.90
2019-04-27T12:16:36.148Z,15.90
2019-04-27T12:19:06.325Z,16.10
2019-04-27T12:21:36.209Z,16.30
2019-04-27T12:24:05.335Z,16.60
2019-04-27T12:26:38.154Z,16.70
2019-04-27T12:29:08.182Z,16.50
2019-04-27T12:31:38.246Z,16.20
2019-04-27T12:34:06.702Z,16.10
2019-04-27T12:36:35.897Z,16.20
2019-04-27T12:39:10.446Z,16.30
2019-04-27T12:41:38.842Z,16.30
2019-04-27T12:44:07.991Z,16.20
2019-04-27T12:46:36.463Z,16.20
2019-04-27T12:49:05.964Z,16.10
2019-04-27T12:51:35.557Z,16.00
2019-04-27T12:54:09.339Z,15.90
2019-04-27T12:56:39.386Z,15.90
2019-04-27T12:59:09.415Z,16.30
2019-04-27T13:01:37.815Z,16.40
2019-04-27T13:04:06.219Z,16.70
2019-04-27T13:06:35.799Z,16.80
2019-04-27T13:09:07.128Z,17.00
2019-04-27T13:11:36.615Z,16.90
2019-04-27T13:14:06.176Z,17.00
2019-04-27T13:16:34.649Z,16.90
2019-04-27T13:19:03.064Z,17.00
2019-04-27T13:21:31.473Z,17.10
2019-04-27T13:24:04.172Z,17.20
2019-04-27T13:26:30.304Z,17.30
2019-04-27T13:28:58.699Z,17.30
2019-04-27T13:31:27.086Z,17.50
2019-04-27T13:33:55.824Z,17.60
2019-04-27T13:36:24.291Z,17.60
2019-04-27T13:38:52.718Z,17.80
2019-04-27T13:41:30.307Z,18.00
2019-04-27T13:43:51.228Z,18.20
2019-04-27T13:46:23.684Z,18.20
2019-04-27T13:49:10.396Z,18.30
2019-04-27T13:51:40.422Z,18.20
2019-04-27T13:54:18.849Z,18.10
2019-04-27T13:56:38.992Z,18.00
2019-04-27T13:59:07.859Z,17.70
2019-04-27T14:01:36.336Z,17.50
2019-04-27T14:04:06.853Z,17.40
2019-04-27T14:06:35.131Z,17.10
2019-04-27T14:09:05.100Z,16.80
2019-04-27T14:11:33.502Z,16.70
2019-04-27T14:14:01.915Z,16.70
2019-04-27T14:16:30.365Z,16.50
2019-04-27T14:18:59.449Z,16.40
2019-04-27T14:21:29.476Z,16.40
2019-04-27T14:23:58.613Z,16.40
2019-04-27T14:26:28.454Z,16.30
2019-04-27T14:28:58.356Z,16.00
2019-04-27T14:31:26.812Z,15.90
2019-04-27T14:33:55.229Z,15.70
2019-04-27T14:36:23.626Z,15.60
2019-04-27T14:38:52.048Z,15.50
2019-04-27T14:41:20.443Z,15.50
2019-04-27T14:44:05.021Z,15.30
2019-04-27T14:46:18.992Z,15.50
2019-04-27T14:48:47.386Z,15.60
2019-04-27T14:51:15.778Z,15.70
2019-04-27T14:53:44.196Z,15.70
2019-04-27T14:56:12.613Z,15.60
2019-04-27T14:58:40.998Z,15.40
2019-04-27T15:01:09.530Z,15.40
2019-04-27T15:03:37.931Z,15.10
2019-04-27T15:06:06.321Z,14.60
2019-04-27T15:08:38.469Z,13.70
2019-04-27T15:11:10.214Z,13.20
2019-04-27T15:13:37.938Z,12.70
2019-04-27T15:16:06.667Z,12.40
2019-04-27T15:18:39.885Z,12.10
2019-04-27T15:21:10.383Z,11.90
2019-04-27T15:23:38.932Z,11.40
2019-04-27T15:26:07.336Z,11.00
2019-04-27T15:28:37.387Z,10.80
2019-04-27T15:31:07.503Z,10.70
2019-04-27T15:33:54.687Z,10.60
2019-04-27T15:36:36.394Z,10.60
2019-04-27T15:39:22.467Z,10.60
2019-04-27T15:42:07.845Z,10.60
2019-04-27T15:44:32.067Z,10.70
2019-04-27T15:47:03.667Z,10.80
2019-04-27T15:49:30.610Z,10.90
2019-04-27T15:52:00.161Z,11.10
2019-04-27T15:54:31.972Z,11.30
2019-04-27T15:56:58.823Z,11.40
2019-04-27T15:59:30.915Z,11.70
2019-04-27T16:02:00.051Z,12.00
2019-04-27T16:04:28.460Z,11.90
2019-04-27T16:06:58.241Z,11.70
2019-04-27T16:09:28.322Z,11.60
2019-04-27T16:12:02.012Z,11.40
2019-04-27T16:14:28.816Z,11.20
2019-04-27T16:16:58.731Z,11.20
2019-04-27T16:19:28.729Z,11.20
2019-04-27T16:21:58.770Z,11.10
2019-04-27T16:24:29.043Z,11.10
2019-04-27T16:26:59.063Z,11.10
2019-04-27T16:29:31.412Z,11.10
2019-04-27T16:31:58.324Z,11.10
2019-04-27T16:34:28.565Z,11.10
2019-04-27T16:36:57.685Z,11.20
2019-04-27T16:39:26.107Z,11.30
2019-04-27T16:41:54.567Z,11.60
2019-04-27T16:44:22.957Z,11.90
2019-04-27T16:46:51.354Z,12.10
2019-04-27T16:49:19.769Z,12.20
2019-04-27T16:51:49.266Z,12.20
2019-04-27T16:54:21.200Z,12.10
2019-04-27T16:56:52.291Z,12.00
2019-04-27T16:59:39.637Z,12.00
2019-04-27T17:01:50.324Z,11.90
2019-04-27T17:04:18.952Z,11.90
2019-04-27T17:06:49.259Z,12.00
2019-04-27T17:09:18.886Z,11.90
2019-04-27T17:11:50.287Z,11.80
2019-04-27T17:14:22.219Z,11.80
2019-04-27T17:17:03.685Z,11.80
2019-04-27T17:19:35.910Z,11.80
2019-04-27T17:22:04.848Z,11.80
2019-04-27T17:24:41.989Z,11.90
2019-04-27T17:27:05.791Z,11.80
2019-04-27T17:29:35.838Z,11.80
2019-04-27T17:32:04.642Z,11.80
2019-04-27T17:34:33.030Z,11.70
2019-04-27T17:37:01.441Z,11.60
2019-04-27T17:39:29.898Z,11.60
2019-04-27T17:41:58.737Z,11.60
2019-04-27T17:44:28.841Z,11.60
2019-04-27T17:46:57.425Z,11.60
2019-04-27T17:49:27.867Z,11.60
2019-04-27T17:51:58.554Z,11.60
2019-04-27T17:54:28.878Z,11.50
2019-04-27T17:56:57.223Z,11.50
2019-04-27T17:59:25.618Z,11.40
2019-04-27T18:01:58.228Z,11.40
2019-04-27T18:04:24.191Z,11.30
2019-04-27T18:06:55.570Z,11.30
2019-04-27T18:09:22.972Z,11.30
2019-04-27T18:11:54.396Z,11.10
2019-04-27T18:14:22.490Z,10.50
2019-04-27T18:16:50.914Z,10.10
2019-04-27T18:19:20.967Z,9.70
2019-04-27T18:21:52.580Z,9.60
2019-04-27T18:24:25.040Z,9.40
2019-04-27T18:27:00.543Z,9.20
2019-04-27T18:29:29.368Z,9.10
2019-04-27T18:31:54.844Z,9.00
2019-04-27T18:34:23.287Z,8.90
2019-04-27T18:36:51.706Z,8.90
2019-04-27T18:39:20.085Z,8.80
2019-04-27T18:41:50.444Z,8.80
2019-04-27T18:44:19.113Z,8.80
2019-04-27T18:46:48.889Z,8.90
2019-04-27T18:49:30.273Z,8.90
2019-04-27T18:52:04.199Z,9.00
2019-04-27T18:54:37.071Z,9.10
2019-04-27T18:57:04.898Z,9.10
2019-04-27T18:59:33.416Z,9.20
2019-04-27T19:02:01.895Z,9.10
2019-04-27T19:04:30.349Z,9.20
2019-04-27T19:07:00.133Z,9.10
2019-04-27T19:09:28.524Z,9.10
2019-04-27T19:11:56.935Z,9.00
2019-04-27T19:14:25.331Z,8.80
2019-04-27T19:16:53.728Z,8.80
2019-04-27T19:19:22.114Z,8.90
2019-04-27T19:21:50.498Z,8.90
2019-04-27T19:24:19.333Z,8.90
2019-04-27T19:26:52.523Z,8.80
2019-04-27T19:29:25.401Z,8.70
2019-04-27T19:31:58.692Z,8.70
2019-04-27T19:34:28.650Z,8.80
2019-04-27T19:36:59.068Z,8.80
2019-04-27T19:39:28.626Z,8.80
2019-04-27T19:42:01.428Z,8.70
2019-04-27T19:44:29.195Z,8.60
2019-04-27T19:46:59.961Z,8.60
2019-04-27T19:49:31.221Z,8.20
2019-04-27T19:51:58.844Z,7.90
2019-04-27T19:54:29.866Z,7.70
2019-04-27T19:56:59.442Z,7.60
2019-04-27T19:59:29.482Z,7.50
2019-04-27T20:01:59.518Z,7.60
2019-04-27T20:04:32.494Z,7.50
2019-04-27T20:07:00.903Z,7.50
2019-04-27T20:09:43.021Z,7.50
2019-04-27T20:12:11.407Z,7.50
2019-04-27T20:14:57.945Z,7.50
2019-04-27T20:17:27.580Z,7.60
2019-04-27T20:19:56.430Z,7.60
2019-04-27T20:22:24.896Z,7.50
2019-04-27T20:24:53.369Z,7.50
2019-04-27T20:27:21.835Z,7.40
2019-04-27T20:29:50.263Z,7.40
2019-04-27T20:32:18.657Z,7.40
2019-04-27T20:34:47.052Z,7.50
2019-04-27T20:37:15.441Z,7.50
2019-04-27T20:39:43.881Z,7.50
2019-04-27T20:42:12.576Z,7.60
2019-04-27T20:44:41.400Z,7.60
2019-04-27T20:47:10.382Z,7.60
2019-04-27T20:49:38.783Z,7.70
2019-04-27T20:52:11.875Z,7.70
2019-04-27T20:54:41.535Z,7.70
2019-04-27T20:57:11.526Z,7.80
2019-04-27T20:59:40.246Z,7.90
2019-04-27T21:02:26.563Z,7.90
2019-04-27T21:04:56.622Z,8.00
2019-04-27T21:07:43.235Z,7.90
2019-04-27T21:10:11.774Z,7.80
2019-04-27T21:12:41.562Z,7.80
2019-04-27T21:15:12.741Z,7.70
2019-04-27T21:17:42.423Z,7.70
2019-04-27T21:20:11.374Z,7.70
2019-04-27T21:22:41.748Z,7.70
2019-04-27T21:25:11.846Z,7.80
2019-04-27T21:27:41.090Z,7.70
2019-04-27T21:30:11.447Z,7.70
2019-04-27T21:32:39.915Z,7.80
2019-04-27T21:35:10.860Z,7.80
2019-04-27T21:37:40.937Z,7.80
2019-04-27T21:40:17.711Z,7.80
2019-04-27T21:42:46.643Z,7.80
2019-04-27T21:45:15.889Z,7.90
2019-04-27T21:47:44.266Z,8.00
2019-04-27T21:50:13.491Z,8.00
2019-04-27T21:53:02.516Z,8.10
2019-04-27T21:55:32.868Z,8.20
2019-04-27T21:58:01.550Z,8.10
2019-04-27T22:03:18.223Z,8.10
2019-04-27T22:05:46.637Z,7.90
2019-04-27T22:08:15.024Z,7.90
2019-04-27T22:10:43.449Z,7.80
2019-04-27T22:13:11.825Z,7.80
2019-04-27T22:15:41.620Z,7.70
2019-04-27T22:18:11.177Z,7.60
2019-04-27T22:20:42.362Z,7.60
2019-04-27T22:23:14.232Z,7.40
2019-04-27T22:25:42.630Z,7.30
2019-04-27T22:28:11.772Z,7.30
2019-04-27T22:30:40.578Z,7.20
2019-04-27T22:33:08.986Z,7.10
2019-04-27T22:35:37.382Z,7.00
2019-04-27T22:38:05.788Z,7.00
2019-04-27T22:40:42.303Z,7.00
2019-04-27T22:43:15.201Z,6.90
2019-04-27T22:45:45.226Z,6.90
2019-04-27T22:48:13.636Z,6.90
2019-04-27T22:50:42.029Z,6.90
2019-04-27T22:53:10.430Z,6.90
2019-04-27T22:55:41.206Z,6.90
2019-04-27T22:58:14.306Z,6.90
2019-04-27T23:00:44.412Z,6.80
2019-04-27T23:03:17.635Z,6.80
2019-04-27T23:05:46.049Z,6.80
2019-04-27T23:08:14.457Z,6.80
2019-04-27T23:10:42.858Z,6.80
2019-04-27T23:13:11.998Z,6.70
2019-04-27T23:15:42.124Z,6.70
2019-04-27T23:18:10.539Z,6.70
2019-04-27T23:20:38.947Z,6.60
2019-04-27T23:23:07.343Z,6.50
2019-04-27T23:25:35.744Z,6.40
2019-04-27T23:28:04.229Z,6.20
2019-04-27T23:30:34.258Z,6.00
2019-04-27T23:33:02.686Z,5.90
2019-04-27T23:35:32.776Z,5.90
2019-04-27T23:38:14.462Z,5.70
2019-04-27T23:40:31.763Z,5.60
2019-04-27T23:43:01.538Z,5.40
2019-04-27T23:45:31.714Z,5.40
2019-04-27T23:48:00.270Z,5.30
2019-04-27T23:50:31.370Z,5.20
2019-04-27T23:53:04.106Z,5.30
2019-04-27T23:55:39.798Z,5.30
2019-04-27T23:58:08.206Z,5.30
